createdAt,value
2017-01-22T00:00:23.087Z,0
2017-01-22T00:01:03.559Z,0
2017-01-22T00:01:44.090Z,0
2017-01-22T00:02:24.578Z,0
2017-01-22T00:03:05.037Z,0
2017-01-22T00:03:45.546Z,0
2017-01-22T00:04:26.042Z,0
2017-01-22T00:05:06.549Z,0
2017-01-22T00:05:47.060Z,0
2017-01-22T00:06:27.563Z,0
2017-01-22T00:07:08.081Z,0
2017-01-22T00:07:48.640Z,0
2017-01-22T00:08:29.182Z,0
2017-01-22T00:09:09.659Z,0
2017-01-22T00:09:50.178Z,0
2017-01-22T00:10:30.653Z,0
2017-01-22T00:11:11.213Z,0
2017-01-22T00:11:51.686Z,0
2017-01-22T00:12:32.181Z,0
2017-01-22T00:13:12.689Z,0
2017-01-22T00:13:53.167Z,0
2017-01-22T00:14:33.666Z,0
2017-01-22T00:15:14.176Z,0
2017-01-22T00:15:54.683Z,0
2017-01-22T00:16:35.182Z,0
2017-01-22T00:17:15.693Z,0
2017-01-22T00:17:56.173Z,0
2017-01-22T00:18:36.656Z,0
2017-01-22T00:19:17.144Z,0
2017-01-22T00:19:57.640Z,0
2017-01-22T00:20:38.146Z,0
2017-01-22T00:21:18.635Z,0
2017-01-22T00:21:59.130Z,0
2017-01-22T00:22:39.638Z,0
2017-01-22T00:23:20.123Z,0
2017-01-22T00:24:00.657Z,0
2017-01-22T00:24:41.144Z,0
2017-01-22T00:25:21.674Z,0
2017-01-22T00:26:02.137Z,0
2017-01-22T00:26:42.635Z,0
2017-01-22T00:27:23.149Z,0
2017-01-22T00:28:03.653Z,0
2017-01-22T00:28:44.144Z,0
2017-01-22T00:29:24.657Z,0
2017-01-22T00:30:05.179Z,0
2017-01-22T00:30:45.634Z,0
2017-01-22T00:31:26.127Z,0
2017-01-22T00:32:06.639Z,0
2017-01-22T00:32:47.111Z,0
2017-01-22T00:33:27.626Z,0
2017-01-22T00:34:08.198Z,0
2017-01-22T00:34:48.695Z,0
2017-01-22T00:35:29.174Z,0
2017-01-22T00:36:09.674Z,0
2017-01-22T00:36:50.181Z,0
2017-01-22T00:37:30.667Z,0
2017-01-22T00:38:11.184Z,0
2017-01-22T00:38:51.677Z,0
2017-01-22T00:39:32.156Z,0
2017-01-22T00:40:12.665Z,0
2017-01-22T00:40:53.231Z,0
2017-01-22T00:41:33.679Z,0
2017-01-22T00:42:14.182Z,0
2017-01-22T00:42:54.675Z,0
2017-01-22T00:43:35.159Z,0
2017-01-22T00:44:15.656Z,0
2017-01-22T00:44:56.170Z,0
2017-01-22T00:45:36.683Z,0
2017-01-22T00:46:17.187Z,0
2017-01-22T00:46:57.696Z,0
2017-01-22T00:47:38.185Z,0
2017-01-22T00:48:18.684Z,0
2017-01-22T00:48:59.157Z,0
2017-01-22T00:49:39.663Z,0
2017-01-22T00:50:20.158Z,0
2017-01-22T00:51:00.654Z,0
2017-01-22T00:51:41.447Z,0
2017-01-22T00:52:21.955Z,0
2017-01-22T00:53:02.450Z,0
2017-01-22T00:53:42.946Z,0
2017-01-22T00:54:23.470Z,0
2017-01-22T00:55:03.989Z,0
2017-01-22T00:55:44.486Z,0
2017-01-22T00:56:25.005Z,0
2017-01-22T00:57:05.465Z,0
2017-01-22T00:57:45.987Z,0
2017-01-22T00:58:26.476Z,0
2017-01-22T00:59:06.996Z,0
2017-01-22T00:59:47.474Z,0
2017-01-22T01:00:27.973Z,0
2017-01-22T01:01:08.457Z,0
2017-01-22T01:01:48.978Z,0
2017-01-22T01:02:29.441Z,0
2017-01-22T01:03:09.944Z,0
2017-01-22T01:03:50.436Z,0
2017-01-22T01:04:30.923Z,0
2017-01-22T01:05:11.416Z,0
2017-01-22T01:05:51.946Z,0
2017-01-22T01:06:32.489Z,0
2017-01-22T01:07:12.968Z,0
2017-01-22T01:07:53.428Z,0
2017-01-22T01:08:33.962Z,0
2017-01-22T01:09:14.463Z,0
2017-01-22T01:09:54.989Z,0
2017-01-22T01:10:35.527Z,0
2017-01-22T01:11:16.113Z,0
2017-01-22T01:11:56.569Z,0
2017-01-22T01:12:37.093Z,0
2017-01-22T01:13:17.588Z,0
2017-01-22T01:13:58.050Z,0
2017-01-22T01:14:38.563Z,0
2017-01-22T01:15:19.020Z,0
2017-01-22T01:15:59.536Z,0
2017-01-22T01:16:40.035Z,0
2017-01-22T01:17:20.542Z,0
2017-01-22T01:18:01.018Z,0
2017-01-22T01:18:41.511Z,0
2017-01-22T01:19:22.006Z,0
2017-01-22T01:20:02.540Z,0
2017-01-22T01:20:42.994Z,0
2017-01-22T01:21:23.485Z,0
2017-01-22T01:22:04.060Z,0
2017-01-22T01:22:44.484Z,0
2017-01-22T01:23:24.998Z,0
2017-01-22T01:24:05.469Z,0
2017-01-22T01:24:45.996Z,0
2017-01-22T01:25:26.497Z,0
2017-01-22T01:26:06.995Z,0
2017-01-22T01:26:47.458Z,0
2017-01-22T01:27:27.979Z,0
2017-01-22T01:28:08.442Z,0
2017-01-22T01:28:49.004Z,0
2017-01-22T01:29:29.445Z,0
2017-01-22T01:30:09.943Z,0
2017-01-22T01:30:50.451Z,0
2017-01-22T01:31:30.953Z,0
2017-01-22T01:32:11.390Z,0
2017-01-22T01:32:51.907Z,0
2017-01-22T01:33:32.459Z,0
2017-01-22T01:34:13.035Z,0
2017-01-22T01:34:53.463Z,0
2017-01-22T01:35:33.907Z,0
2017-01-22T01:36:15.062Z,0
2017-01-22T01:36:54.888Z,0
2017-01-22T01:37:35.386Z,0
2017-01-22T01:38:15.886Z,0
2017-01-22T01:38:56.409Z,0
2017-01-22T01:39:36.949Z,0
2017-01-22T01:40:17.414Z,0
2017-01-22T01:40:57.906Z,0
2017-01-22T01:41:38.416Z,0
2017-01-22T01:42:18.922Z,0
2017-01-22T01:42:59.488Z,0
2017-01-22T01:43:39.944Z,0
2017-01-22T01:44:20.456Z,0
2017-01-22T01:45:00.941Z,0
2017-01-22T01:45:41.456Z,0
2017-01-22T01:46:21.950Z,0
2017-01-22T01:47:02.424Z,0
2017-01-22T01:47:42.926Z,0
2017-01-22T01:48:23.429Z,0
2017-01-22T01:49:03.934Z,0
2017-01-22T01:49:44.440Z,0
2017-01-22T01:50:24.933Z,0
2017-01-22T01:51:05.445Z,0
2017-01-22T01:51:45.904Z,0
2017-01-22T01:52:26.389Z,0
2017-01-22T01:53:06.884Z,0
2017-01-22T01:53:47.381Z,0
2017-01-22T01:54:27.881Z,0
2017-01-22T01:55:08.383Z,0
2017-01-22T01:55:48.895Z,0
2017-01-22T01:56:29.385Z,0
2017-01-22T01:57:09.898Z,0
2017-01-22T01:57:50.391Z,0
2017-01-22T01:58:30.908Z,0
2017-01-22T01:59:11.415Z,0
2017-01-22T01:59:51.915Z,0
2017-01-22T02:00:32.388Z,0
2017-01-22T02:01:12.893Z,0
2017-01-22T02:01:53.355Z,0
2017-01-22T02:02:33.869Z,0
2017-01-22T02:03:14.344Z,0
2017-01-22T02:03:54.850Z,0
2017-01-22T02:04:35.350Z,0
2017-01-22T02:05:15.863Z,0
2017-01-22T02:05:56.338Z,0
2017-01-22T02:06:36.831Z,0
2017-01-22T02:07:17.340Z,0
2017-01-22T02:07:57.855Z,0
2017-01-22T02:08:38.330Z,0
2017-01-22T02:09:18.839Z,0
2017-01-22T02:09:59.307Z,0
2017-01-22T02:10:39.802Z,0
2017-01-22T02:11:20.311Z,0
2017-01-22T02:12:00.802Z,0
2017-01-22T02:12:41.269Z,0
2017-01-22T02:13:21.779Z,0
2017-01-22T02:14:02.245Z,0
2017-01-22T02:14:42.749Z,0
2017-01-22T02:15:23.244Z,0
2017-01-22T02:16:03.762Z,0
2017-01-22T02:16:44.510Z,0
2017-01-22T02:17:24.958Z,0
2017-01-22T02:18:05.424Z,0
2017-01-22T02:18:45.934Z,0
2017-01-22T02:19:26.434Z,0
2017-01-22T02:20:06.951Z,0
2017-01-22T02:20:47.431Z,0
2017-01-22T02:21:27.921Z,0
2017-01-22T02:22:08.445Z,0
2017-01-22T02:22:48.912Z,0
2017-01-22T02:23:29.405Z,0
2017-01-22T02:24:09.920Z,0
2017-01-22T02:24:50.407Z,0
2017-01-22T02:25:30.877Z,0
2017-01-22T02:26:11.431Z,0
2017-01-22T02:26:51.904Z,0
2017-01-22T02:27:32.384Z,0
2017-01-22T02:28:12.892Z,0
2017-01-22T02:28:53.397Z,0
2017-01-22T02:29:33.848Z,0
2017-01-22T02:30:14.397Z,0
2017-01-22T02:30:54.876Z,0
2017-01-22T02:31:35.352Z,0
2017-01-22T02:32:15.840Z,0
2017-01-22T02:32:56.323Z,0
2017-01-22T02:33:36.807Z,0
2017-01-22T02:34:17.328Z,0
2017-01-22T02:34:57.797Z,0
2017-01-22T02:35:38.301Z,0
2017-01-22T02:36:18.795Z,0
2017-01-22T02:36:59.309Z,0
2017-01-22T02:37:39.796Z,0
2017-01-22T02:38:20.297Z,0
2017-01-22T02:39:00.780Z,0
2017-01-22T02:39:41.281Z,0
2017-01-22T02:40:21.750Z,0
2017-01-22T02:41:02.253Z,0
2017-01-22T02:41:42.765Z,0
2017-01-22T02:42:23.227Z,0
2017-01-22T02:43:03.766Z,0
2017-01-22T02:43:44.296Z,0
2017-01-22T02:44:24.773Z,0
2017-01-22T02:45:05.383Z,0
2017-01-22T02:45:45.922Z,0
2017-01-22T02:46:26.390Z,0
2017-01-22T02:47:06.871Z,0
2017-01-22T02:47:47.343Z,0
2017-01-22T02:48:27.847Z,0
2017-01-22T02:49:08.329Z,0
2017-01-22T02:49:48.852Z,0
2017-01-22T02:50:29.327Z,0
2017-01-22T02:51:09.801Z,0
2017-01-22T02:51:50.318Z,0
2017-01-22T02:52:30.822Z,0
2017-01-22T02:53:11.339Z,0
2017-01-22T02:53:51.823Z,0
2017-01-22T02:54:32.331Z,0
2017-01-22T02:55:12.843Z,0
2017-01-22T02:55:53.336Z,0
2017-01-22T02:56:33.811Z,0
2017-01-22T02:57:14.311Z,0
2017-01-22T02:57:54.807Z,0
2017-01-22T02:58:35.324Z,0
2017-01-22T02:59:15.858Z,0
2017-01-22T02:59:56.338Z,0
2017-01-22T03:00:36.844Z,0
2017-01-22T03:01:17.353Z,0
2017-01-22T03:01:57.865Z,0
2017-01-22T03:02:38.350Z,0
2017-01-22T03:03:18.859Z,0
2017-01-22T03:03:59.325Z,0
2017-01-22T03:04:39.842Z,0
2017-01-22T03:05:20.321Z,0
2017-01-22T03:06:00.809Z,0
2017-01-22T03:06:41.312Z,0
2017-01-22T03:07:21.822Z,0
2017-01-22T03:08:02.313Z,0
2017-01-22T03:08:42.848Z,0
2017-01-22T03:09:23.396Z,0
2017-01-22T03:10:03.861Z,0
2017-01-22T03:10:44.360Z,0
2017-01-22T03:11:24.884Z,0
2017-01-22T03:12:05.381Z,0
2017-01-22T03:12:45.854Z,0
2017-01-22T03:13:26.345Z,0
2017-01-22T03:14:06.833Z,0
2017-01-22T03:16:35.365Z,0
2017-01-22T03:17:15.873Z,0
2017-01-22T03:17:56.372Z,0
2017-01-22T03:18:36.850Z,0
2017-01-22T03:19:17.345Z,0
2017-01-22T03:19:57.833Z,0
2017-01-22T03:20:38.334Z,0
2017-01-22T03:21:18.820Z,0
2017-01-22T03:21:59.326Z,0
2017-01-22T03:22:39.849Z,0
2017-01-22T03:23:20.376Z,0
2017-01-22T03:24:00.831Z,0
2017-01-22T03:24:41.319Z,0
2017-01-22T03:25:21.833Z,0
2017-01-22T03:26:02.374Z,0
2017-01-22T03:26:42.849Z,0
2017-01-22T03:27:23.328Z,0
2017-01-22T03:28:03.848Z,0
2017-01-22T03:28:44.324Z,0
2017-01-22T03:29:24.817Z,0
2017-01-22T03:30:05.305Z,0
2017-01-22T03:30:45.811Z,0
2017-01-22T03:31:26.299Z,0
2017-01-22T03:32:06.761Z,0
2017-01-22T03:32:47.249Z,0
2017-01-22T03:33:27.783Z,0
2017-01-22T03:34:08.251Z,0
2017-01-22T03:34:48.715Z,0
2017-01-22T03:35:29.206Z,0
2017-01-22T03:36:09.692Z,0
2017-01-22T03:36:50.195Z,0
2017-01-22T03:37:30.762Z,0
2017-01-22T03:38:11.246Z,0
2017-01-22T03:38:51.739Z,0
2017-01-22T03:39:32.210Z,0
2017-01-22T03:40:12.894Z,0
2017-01-22T03:40:53.329Z,0
2017-01-22T03:41:33.835Z,0
2017-01-22T03:42:14.366Z,0
2017-01-22T03:42:54.806Z,0
2017-01-22T03:43:35.272Z,0
2017-01-22T03:44:15.794Z,0
2017-01-22T03:44:56.284Z,0
2017-01-22T03:45:36.770Z,0
2017-01-22T03:46:17.267Z,0
2017-01-22T03:46:57.743Z,0
2017-01-22T03:47:38.291Z,0
2017-01-22T03:48:18.794Z,0
2017-01-22T03:48:59.245Z,0
2017-01-22T03:49:39.727Z,0
2017-01-22T03:50:20.205Z,0
2017-01-22T03:51:00.701Z,0
2017-01-22T03:51:41.179Z,0
2017-01-22T03:52:21.698Z,0
2017-01-22T03:53:02.162Z,0
2017-01-22T03:53:42.640Z,0
2017-01-22T03:54:23.136Z,0
2017-01-22T03:55:03.631Z,0
2017-01-22T03:55:44.104Z,0
2017-01-22T03:56:24.613Z,0
2017-01-22T03:57:05.120Z,0
2017-01-22T03:57:45.616Z,0
2017-01-22T03:58:26.174Z,0
2017-01-22T03:59:06.701Z,0
2017-01-22T03:59:47.223Z,0
2017-01-22T04:00:27.695Z,0
2017-01-22T04:01:08.204Z,0
2017-01-22T04:01:49.710Z,0
2017-01-22T04:02:31.524Z,0
2017-01-22T04:03:12.054Z,0
2017-01-22T04:03:52.692Z,0
2017-01-22T04:04:33.305Z,0
2017-01-22T04:05:13.796Z,0
2017-01-22T04:05:54.293Z,0
2017-01-22T04:06:34.811Z,0
2017-01-22T04:07:57.351Z,0
2017-01-22T04:08:38.196Z,0
2017-01-22T04:09:19.923Z,0
2017-01-22T04:11:40.480Z,0
2017-01-22T04:12:21.001Z,0
2017-01-22T04:13:01.428Z,0
2017-01-22T04:13:41.933Z,0
2017-01-22T04:14:22.483Z,0
2017-01-22T04:15:02.922Z,0
2017-01-22T04:15:43.412Z,0
2017-01-22T04:16:23.915Z,0
2017-01-22T04:17:04.445Z,0
2017-01-22T04:17:44.902Z,0
2017-01-22T04:18:25.360Z,0
2017-01-22T04:19:05.851Z,0
2017-01-22T04:19:46.405Z,0
2017-01-22T04:20:26.876Z,0
2017-01-22T04:21:07.314Z,0
2017-01-22T04:21:47.852Z,0
2017-01-22T04:22:28.342Z,0
2017-01-22T04:23:08.818Z,0
2017-01-22T04:23:49.330Z,0
2017-01-22T04:24:29.820Z,0
2017-01-22T04:25:10.297Z,0
2017-01-22T04:25:50.809Z,0
2017-01-22T04:26:31.296Z,0
2017-01-22T04:27:11.797Z,0
2017-01-22T04:27:52.291Z,0
2017-01-22T04:28:32.785Z,0
2017-01-22T04:29:13.279Z,0
2017-01-22T04:29:53.789Z,0
2017-01-22T04:30:34.288Z,0
2017-01-22T04:31:14.747Z,0
2017-01-22T04:31:55.278Z,0
2017-01-22T04:32:35.747Z,0
2017-01-22T04:33:16.262Z,0
2017-01-22T04:33:56.737Z,0
2017-01-22T04:34:37.227Z,0
2017-01-22T04:35:17.704Z,0
2017-01-22T04:35:58.197Z,0
2017-01-22T04:36:38.724Z,0
2017-01-22T04:37:19.234Z,0
2017-01-22T04:37:59.722Z,0
2017-01-22T04:38:40.241Z,0
2017-01-22T04:39:20.733Z,0
2017-01-22T04:40:01.238Z,0
2017-01-22T04:40:41.738Z,0
2017-01-22T04:41:22.259Z,0
2017-01-22T04:42:02.735Z,0
2017-01-22T04:42:43.270Z,0
2017-01-22T04:43:23.764Z,0
2017-01-22T04:44:04.246Z,0
2017-01-22T04:44:44.755Z,0
2017-01-22T04:45:25.239Z,0
2017-01-22T04:46:05.739Z,0
2017-01-22T04:46:46.232Z,0
2017-01-22T04:47:26.749Z,0
2017-01-22T04:48:07.165Z,0
2017-01-22T04:48:47.667Z,0
2017-01-22T04:49:28.183Z,0
2017-01-22T04:50:08.676Z,0
2017-01-22T04:50:49.205Z,0
2017-01-22T04:51:29.675Z,0
2017-01-22T04:52:10.156Z,0
2017-01-22T04:52:50.664Z,0
2017-01-22T04:53:31.145Z,0
2017-01-22T04:54:11.657Z,0
2017-01-22T04:54:52.171Z,0
2017-01-22T04:55:32.650Z,0
2017-01-22T04:56:13.151Z,0
2017-01-22T04:56:53.650Z,0
2017-01-22T04:57:34.142Z,0
2017-01-22T04:58:14.629Z,0
2017-01-22T04:58:55.095Z,0
2017-01-22T04:59:35.569Z,0
2017-01-22T05:00:16.104Z,0
2017-01-22T05:00:56.556Z,0
2017-01-22T05:01:37.059Z,0
2017-01-22T05:02:17.515Z,0
2017-01-22T05:02:58.015Z,0
2017-01-22T05:03:38.509Z,0
2017-01-22T05:04:19.033Z,0
2017-01-22T05:04:59.501Z,0
2017-01-22T05:05:40.003Z,0
2017-01-22T05:06:20.515Z,0
2017-01-22T05:07:01.024Z,0
2017-01-22T05:07:41.508Z,0
2017-01-22T05:08:21.980Z,0
2017-01-22T05:09:02.470Z,0
2017-01-22T05:09:42.987Z,0
2017-01-22T05:10:23.470Z,0
2017-01-22T05:11:03.952Z,0
2017-01-22T05:11:44.428Z,0
2017-01-22T05:12:24.925Z,0
2017-01-22T05:13:05.444Z,0
2017-01-22T05:13:45.949Z,0
2017-01-22T05:14:26.428Z,0
2017-01-22T05:15:06.907Z,0
2017-01-22T05:15:47.408Z,0
2017-01-22T05:16:27.899Z,0
2017-01-22T05:17:08.372Z,0
2017-01-22T05:17:48.856Z,0
2017-01-22T05:18:29.367Z,0
2017-01-22T05:19:09.839Z,0
2017-01-22T05:19:50.343Z,0
2017-01-22T05:20:30.829Z,0
2017-01-22T05:21:11.324Z,0
2017-01-22T05:21:51.820Z,0
2017-01-22T05:22:32.333Z,0
2017-01-22T05:23:12.804Z,0
2017-01-22T05:23:53.306Z,0
2017-01-22T05:24:33.824Z,0
2017-01-22T05:25:14.260Z,0
2017-01-22T05:25:54.777Z,0
2017-01-22T05:26:35.261Z,0
2017-01-22T05:27:15.717Z,0
2017-01-22T05:27:56.236Z,0
2017-01-22T05:28:36.723Z,0
2017-01-22T05:29:17.226Z,0
2017-01-22T05:29:57.721Z,0
2017-01-22T05:30:38.232Z,0
2017-01-22T05:31:18.736Z,0
2017-01-22T05:31:59.210Z,0
2017-01-22T05:32:39.713Z,0
2017-01-22T05:33:20.201Z,0
2017-01-22T05:34:00.646Z,0
2017-01-22T05:34:41.155Z,0
2017-01-22T05:35:21.693Z,0
2017-01-22T05:36:02.195Z,0
2017-01-22T05:36:42.659Z,0
2017-01-22T05:37:23.157Z,0
2017-01-22T05:38:03.608Z,0
2017-01-22T05:38:44.126Z,0
2017-01-22T05:39:24.633Z,0
2017-01-22T05:40:05.107Z,0
2017-01-22T05:40:45.606Z,0
2017-01-22T05:41:26.059Z,0
2017-01-22T05:42:06.552Z,0
2017-01-22T05:42:47.047Z,0
2017-01-22T05:43:27.526Z,0
2017-01-22T05:44:08.047Z,0
2017-01-22T05:44:48.579Z,0
2017-01-22T05:45:29.057Z,0
2017-01-22T05:46:09.506Z,0
2017-01-22T05:46:50.017Z,0
2017-01-22T05:47:30.484Z,0
2017-01-22T05:48:10.974Z,0
2017-01-22T05:48:51.479Z,0
2017-01-22T05:49:31.972Z,0
2017-01-22T05:50:12.483Z,0
2017-01-22T05:50:52.972Z,0
2017-01-22T05:51:33.448Z,0
2017-01-22T05:52:13.964Z,0
2017-01-22T05:52:54.489Z,0
2017-01-22T05:53:34.933Z,0
2017-01-22T05:54:15.491Z,0
2017-01-22T05:54:55.930Z,0
2017-01-22T05:55:36.445Z,0
2017-01-22T05:56:16.931Z,0
2017-01-22T05:56:57.418Z,0
2017-01-22T05:57:37.918Z,0
2017-01-22T05:58:18.425Z,0
2017-01-22T05:58:58.932Z,0
2017-01-22T05:59:39.451Z,0
2017-01-22T06:00:19.958Z,0
2017-01-22T06:01:00.454Z,0
2017-01-22T06:01:40.933Z,0
2017-01-22T06:02:21.436Z,0
2017-01-22T06:03:01.945Z,0
2017-01-22T06:03:42.445Z,0
2017-01-22T06:04:22.929Z,0
2017-01-22T06:05:03.423Z,0
2017-01-22T06:05:43.944Z,0
2017-01-22T06:06:24.425Z,0
2017-01-22T06:07:04.921Z,0
2017-01-22T06:07:45.431Z,0
2017-01-22T06:08:25.919Z,0
2017-01-22T06:09:06.458Z,0
2017-01-22T06:09:46.887Z,0
2017-01-22T06:10:27.368Z,0
2017-01-22T06:11:07.858Z,0
2017-01-22T06:11:48.340Z,0
2017-01-22T06:12:28.838Z,0
2017-01-22T06:13:09.312Z,0
2017-01-22T06:13:49.804Z,0
2017-01-22T06:14:30.296Z,0
2017-01-22T06:15:10.782Z,0
2017-01-22T06:15:51.274Z,0
2017-01-22T06:16:31.770Z,0
2017-01-22T06:17:12.251Z,0
2017-01-22T06:17:52.783Z,0
2017-01-22T06:18:33.216Z,0
2017-01-22T06:19:13.740Z,0
2017-01-22T06:19:54.245Z,0
2017-01-22T06:20:34.770Z,0
2017-01-22T06:21:15.260Z,0
2017-01-22T06:21:55.726Z,0
2017-01-22T06:22:36.195Z,0
2017-01-22T06:23:16.666Z,0
2017-01-22T06:23:57.158Z,0
2017-01-22T06:24:37.673Z,0
2017-01-22T06:25:18.141Z,0
2017-01-22T06:25:58.660Z,0
2017-01-22T06:26:39.147Z,0
2017-01-22T06:27:19.647Z,0
2017-01-22T06:28:00.271Z,0
2017-01-22T06:28:40.746Z,0
2017-01-22T06:29:21.169Z,0
2017-01-22T06:30:01.685Z,0
2017-01-22T06:30:42.132Z,0
2017-01-22T06:31:22.636Z,0
2017-01-22T06:32:03.130Z,0
2017-01-22T06:32:43.613Z,0
2017-01-22T06:33:24.121Z,0
2017-01-22T06:34:04.549Z,0
2017-01-22T06:34:45.057Z,0
2017-01-22T06:35:25.536Z,0
2017-01-22T06:36:06.065Z,4
2017-01-22T06:36:46.534Z,4
2017-01-22T06:37:27.004Z,0
2017-01-22T06:38:07.497Z,0
2017-01-22T06:38:47.982Z,0
2017-01-22T06:39:28.460Z,4
2017-01-22T06:40:08.971Z,4
2017-01-22T06:40:49.539Z,0
2017-01-22T06:41:30.038Z,4
2017-01-22T06:42:10.489Z,4
2017-01-22T06:42:50.965Z,4
2017-01-22T06:43:31.462Z,4
2017-01-22T06:44:11.943Z,4
2017-01-22T06:44:52.429Z,8
2017-01-22T06:45:32.888Z,4
2017-01-22T06:46:13.411Z,8
2017-01-22T06:46:53.865Z,8
2017-01-22T06:47:34.337Z,8
2017-01-22T06:48:14.864Z,12
2017-01-22T06:48:55.324Z,12
2017-01-22T06:49:35.797Z,12
2017-01-22T06:50:16.286Z,12
2017-01-22T06:50:56.745Z,12
2017-01-22T06:51:37.208Z,16
2017-01-22T06:52:17.721Z,16
2017-01-22T06:52:58.177Z,20
2017-01-22T06:53:38.748Z,20
2017-01-22T06:54:19.277Z,24
2017-01-22T06:54:59.732Z,24
2017-01-22T06:55:40.184Z,28
2017-01-22T06:56:20.700Z,28
2017-01-22T06:57:01.162Z,32
2017-01-22T06:57:41.703Z,36
2017-01-22T06:58:22.179Z,40
2017-01-22T06:59:02.647Z,44
2017-01-22T06:59:43.112Z,44
2017-01-22T07:00:23.635Z,48
2017-01-22T07:01:04.129Z,52
2017-01-22T07:01:44.539Z,60
2017-01-22T07:02:25.046Z,64
2017-01-22T07:03:05.608Z,64
2017-01-22T07:03:46.061Z,72
2017-01-22T07:04:26.555Z,76
2017-01-22T07:05:07.038Z,80
2017-01-22T07:05:47.569Z,88
2017-01-22T07:06:28.020Z,92
2017-01-22T07:07:08.513Z,100
2017-01-22T07:07:48.992Z,104
2017-01-22T07:08:29.471Z,108
2017-01-22T07:09:09.960Z,116
2017-01-22T07:09:50.471Z,120
2017-01-22T07:10:30.921Z,128
2017-01-22T07:11:11.445Z,140
2017-01-22T07:11:51.908Z,148
2017-01-22T07:12:32.373Z,152
2017-01-22T07:13:12.858Z,160
2017-01-22T07:13:53.346Z,172
2017-01-22T07:14:33.890Z,180
2017-01-22T07:15:14.364Z,188
2017-01-22T07:15:54.844Z,192
2017-01-22T07:16:35.345Z,200
2017-01-22T07:17:15.946Z,212
2017-01-22T07:17:56.444Z,220
2017-01-22T07:18:36.931Z,232
2017-01-22T07:19:17.469Z,240
2017-01-22T07:19:57.918Z,248
2017-01-22T07:20:38.382Z,260
2017-01-22T07:21:18.913Z,272
2017-01-22T07:21:59.396Z,280
2017-01-22T07:22:39.912Z,288
2017-01-22T07:23:20.353Z,304
2017-01-22T07:24:00.850Z,312
2017-01-22T07:24:41.355Z,324
2017-01-22T07:25:21.820Z,332
2017-01-22T07:26:02.368Z,344
2017-01-22T07:26:42.837Z,356
2017-01-22T07:27:23.279Z,368
2017-01-22T07:28:03.800Z,380
2017-01-22T07:28:44.276Z,392
2017-01-22T07:29:24.788Z,404
2017-01-22T07:30:05.249Z,412
2017-01-22T07:30:45.763Z,424
2017-01-22T07:31:26.270Z,436
2017-01-22T07:32:06.729Z,448
2017-01-22T07:32:47.184Z,460
2017-01-22T07:33:27.707Z,472
2017-01-22T07:34:08.170Z,484
2017-01-22T07:34:48.703Z,496
2017-01-22T07:35:29.166Z,508
2017-01-22T07:36:09.707Z,520
2017-01-22T07:36:50.167Z,532
2017-01-22T07:37:30.628Z,544
2017-01-22T07:38:11.119Z,556
2017-01-22T07:38:51.576Z,572
2017-01-22T07:39:32.087Z,580
2017-01-22T07:40:12.578Z,596
2017-01-22T07:40:53.039Z,608
2017-01-22T07:41:33.556Z,620
2017-01-22T07:42:13.999Z,632
2017-01-22T07:42:54.501Z,644
2017-01-22T07:43:35.020Z,660
2017-01-22T07:44:15.537Z,668
2017-01-22T07:44:55.964Z,684
2017-01-22T07:45:36.458Z,696
2017-01-22T07:46:16.923Z,708
2017-01-22T07:46:57.419Z,724
2017-01-22T07:47:37.882Z,732
2017-01-22T07:48:18.365Z,748
2017-01-22T07:48:58.869Z,760
2017-01-22T07:49:39.363Z,772
2017-01-22T07:50:19.834Z,780
2017-01-22T07:51:00.337Z,796
2017-01-22T07:51:40.799Z,804
2017-01-22T07:52:21.302Z,816
2017-01-22T07:53:01.794Z,828
2017-01-22T07:53:42.270Z,844
2017-01-22T07:54:22.787Z,852
2017-01-22T07:55:03.222Z,864
2017-01-22T07:55:43.720Z,880
2017-01-22T07:56:24.224Z,892
2017-01-22T07:57:04.740Z,904
2017-01-22T07:57:45.209Z,912
2017-01-22T07:58:25.692Z,928
2017-01-22T07:59:06.168Z,940
2017-01-22T07:59:46.647Z,948
2017-01-22T08:00:27.128Z,960
2017-01-22T08:01:07.636Z,972
2017-01-22T08:01:48.202Z,980
2017-01-22T08:02:28.711Z,992
2017-01-22T08:03:09.237Z,1004
2017-01-22T08:03:49.712Z,1012
2017-01-22T08:04:30.211Z,1028
2017-01-22T08:05:10.722Z,1036
2017-01-22T08:05:51.226Z,1044
2017-01-22T08:06:31.718Z,1056
2017-01-22T08:07:12.222Z,1064
2017-01-22T08:07:52.718Z,1072
2017-01-22T08:08:33.232Z,1084
2017-01-22T08:09:13.746Z,1096
2017-01-22T08:09:54.251Z,1100
2017-01-22T08:10:34.753Z,1108
2017-01-22T08:11:15.255Z,1116
2017-01-22T08:11:55.788Z,1124
2017-01-22T08:12:36.332Z,1132
2017-01-22T08:13:16.819Z,1140
2017-01-22T08:13:57.319Z,1152
2017-01-22T08:14:37.827Z,1152
2017-01-22T08:15:18.323Z,1168
2017-01-22T08:15:58.841Z,1176
2017-01-22T08:16:39.375Z,1184
2017-01-22T08:17:19.908Z,1192
2017-01-22T08:18:00.548Z,1200
2017-01-22T08:18:41.173Z,1208
2017-01-22T08:19:21.655Z,1216
2017-01-22T08:20:02.165Z,1220
2017-01-22T08:20:42.666Z,1228
2017-01-22T08:21:23.185Z,1236
2017-01-22T08:22:03.685Z,1244
2017-01-22T08:22:44.203Z,1256
2017-01-22T08:23:24.729Z,1260
2017-01-22T08:24:05.219Z,1268
2017-01-22T08:24:45.721Z,1280
2017-01-22T08:25:26.363Z,1288
2017-01-22T08:26:06.806Z,1296
2017-01-22T08:26:47.305Z,1304
2017-01-22T08:27:27.852Z,1312
2017-01-22T08:28:08.297Z,1320
2017-01-22T08:28:48.826Z,1328
2017-01-22T08:29:29.247Z,1340
2017-01-22T08:30:09.785Z,1344
2017-01-22T08:30:50.241Z,1348
2017-01-22T08:31:30.727Z,1356
2017-01-22T08:32:11.189Z,1364
2017-01-22T08:32:51.682Z,1368
2017-01-22T08:33:32.181Z,1376
2017-01-22T08:34:12.682Z,1384
2017-01-22T08:34:53.159Z,1392
2017-01-22T08:35:33.676Z,1396
2017-01-22T08:36:14.135Z,1400
2017-01-22T08:36:54.623Z,1408
2017-01-22T08:37:35.111Z,1412
2017-01-22T08:38:15.587Z,1420
2017-01-22T08:38:56.080Z,1424
2017-01-22T08:39:36.585Z,1432
2017-01-22T08:40:17.053Z,1440
2017-01-22T08:40:57.530Z,1448
2017-01-22T08:41:38.019Z,1456
2017-01-22T08:42:18.552Z,1464
2017-01-22T08:42:59.066Z,1468
2017-01-22T08:43:39.496Z,1476
2017-01-22T08:44:19.989Z,1480
2017-01-22T08:45:00.448Z,1488
2017-01-22T08:45:40.912Z,1492
2017-01-22T08:46:21.440Z,1496
2017-01-22T08:47:01.950Z,1504
2017-01-22T08:47:42.422Z,1512
2017-01-22T08:48:23.045Z,1516
2017-01-22T08:49:03.557Z,1524
2017-01-22T08:49:44.034Z,1528
2017-01-22T08:50:24.542Z,1532
2017-01-22T08:51:05.045Z,1540
2017-01-22T08:51:45.562Z,1544
2017-01-22T08:52:26.157Z,1552
2017-01-22T08:53:06.612Z,1560
2017-01-22T08:53:47.114Z,1568
2017-01-22T08:55:10.751Z,1580
2017-01-22T08:55:51.255Z,1584
2017-01-22T08:56:31.755Z,1588
2017-01-22T08:57:12.268Z,1596
2017-01-22T08:57:52.784Z,1600
2017-01-22T08:58:33.326Z,1608
2017-01-22T08:59:13.816Z,1608
2017-01-22T08:59:54.318Z,1612
2017-01-22T09:00:34.811Z,1616
2017-01-22T09:01:15.340Z,1624
2017-01-22T09:01:55.840Z,1628
2017-01-22T09:02:36.343Z,1636
2017-01-22T09:03:16.853Z,1640
2017-01-22T09:03:57.349Z,1648
2017-01-22T09:04:38.016Z,1652
2017-01-22T09:05:18.582Z,1652
2017-01-22T09:05:59.119Z,1660
2017-01-22T09:06:39.597Z,1660
2017-01-22T09:07:20.103Z,1664
2017-01-22T09:08:00.624Z,1660
2017-01-22T09:08:41.106Z,1664
2017-01-22T09:09:21.578Z,1660
2017-01-22T09:10:02.026Z,1656
2017-01-22T09:10:42.531Z,1664
2017-01-22T09:11:22.994Z,1664
2017-01-22T09:12:03.515Z,1668
2017-01-22T09:12:43.958Z,1668
2017-01-22T09:13:24.439Z,1668
2017-01-22T09:14:04.919Z,1664
2017-01-22T09:14:45.420Z,1668
2017-01-22T09:15:25.998Z,1672
2017-01-22T09:16:06.445Z,1672
2017-01-22T09:16:46.954Z,1668
2017-01-22T09:17:27.457Z,1668
2017-01-22T09:18:07.917Z,1656
2017-01-22T09:18:48.415Z,1660
2017-01-22T09:19:28.925Z,1660
2017-01-22T09:25:12.480Z,1656
2017-01-22T09:25:52.949Z,1660
2017-01-22T09:26:33.508Z,1660
2017-01-22T09:27:14.153Z,1656
2017-01-22T09:27:54.445Z,1656
2017-01-22T09:28:34.951Z,1656
2017-01-22T09:29:15.486Z,1660
2017-01-22T09:29:55.912Z,1660
2017-01-22T09:30:36.485Z,1668
2017-01-22T09:31:16.958Z,1664
2017-01-22T09:31:59.104Z,1668
2017-01-22T09:32:39.581Z,1672
2017-01-22T09:33:20.085Z,1676
2017-01-22T09:34:00.564Z,1672
2017-01-22T09:34:41.128Z,1680
2017-01-22T09:35:21.552Z,1684
2017-01-22T09:36:01.991Z,1692
2017-01-22T09:36:42.465Z,1696
2017-01-22T09:37:22.984Z,1700
2017-01-22T09:57:25.416Z,1752
2017-01-22T10:04:15.056Z,1768
2017-01-22T10:04:55.670Z,1768
2017-01-22T10:05:36.188Z,1776
2017-01-22T10:06:16.780Z,1780
2017-01-22T10:06:57.230Z,1756
2017-01-22T10:07:37.721Z,1788
2017-01-22T10:08:18.270Z,1792
2017-01-22T10:08:58.680Z,1788
2017-01-22T10:09:39.144Z,1788
2017-01-22T10:10:19.659Z,1796
2017-01-22T10:11:01.326Z,1784
2017-01-22T10:11:42.348Z,1804
2017-01-22T10:12:22.548Z,1796
2017-01-22T10:13:02.995Z,1804
2017-01-22T10:13:43.615Z,1812
2017-01-22T10:14:24.142Z,1820
2017-01-22T10:15:04.604Z,1820
2017-01-22T10:15:45.111Z,1820
2017-01-22T10:16:26.515Z,1828
2017-01-22T10:17:09.474Z,1828
2017-01-22T10:19:06.076Z,1840